createdAt,value
2022-12-10T06:39:38.867Z,1004.39
2022-12-10T06:40:38.849Z,1004.38
2022-12-10T06:41:38.845Z,1004.42
2022-12-10T06:42:38.826Z,1004.40
2022-12-10T06:44:38.806Z,1004.49
2022-12-10T06:45:38.793Z,1004.44
2022-12-10T06:46:38.846Z,1004.47
2022-12-10T06:47:42.876Z,1004.46
2022-12-10T06:48:38.772Z,1004.55
2022-12-10T06:49:38.781Z,1004.54
2022-12-10T06:50:38.747Z,1004.50
2022-12-10T06:51:38.728Z,1004.54
2022-12-10T06:52:38.729Z,1004.52
2022-12-10T06:53:38.707Z,1004.52
2022-12-10T06:54:38.695Z,1004.51
2022-12-10T06:55:38.699Z,1004.56
2022-12-10T06:56:38.679Z,1004.44
2022-12-10T06:57:38.662Z,1004.50
2022-12-10T06:58:38.659Z,1004.54
2022-12-10T06:59:38.638Z,1004.55
2022-12-10T07:00:38.635Z,1004.55
2022-12-10T07:01:38.809Z,1004.54
2022-12-10T07:02:38.753Z,1004.58
2022-12-10T07:03:38.597Z,1004.59
2022-12-10T07:04:38.590Z,1004.60
2022-12-10T07:05:38.600Z,1004.58
2022-12-10T07:06:38.566Z,1004.59
2022-12-10T07:07:38.565Z,1004.64
2022-12-10T07:08:38.551Z,1004.67
2022-12-10T07:09:38.536Z,1004.60
2022-12-10T07:10:38.517Z,1004.65
2022-12-10T07:11:38.511Z,1004.68
2022-12-10T07:12:38.501Z,1004.64
2022-12-10T07:13:38.484Z,1004.64
2022-12-10T07:14:38.483Z,1004.63
2022-12-10T07:15:38.478Z,1004.58
2022-12-10T07:16:38.464Z,1004.64
2022-12-10T07:17:38.440Z,1004.64
2022-12-10T07:18:38.427Z,1004.62
2022-12-10T07:19:38.420Z,1004.67
2022-12-10T07:20:38.412Z,1004.68
2022-12-10T07:21:38.423Z,1004.69
2022-12-10T07:22:38.388Z,1004.67
2022-12-10T07:23:38.384Z,1004.66
2022-12-10T07:24:38.382Z,1004.64
2022-12-10T07:25:38.355Z,1004.73
2022-12-10T07:26:38.337Z,1004.70
2022-12-10T07:27:38.337Z,1004.70
2022-12-10T07:28:45.473Z,1004.72
2022-12-10T07:29:38.309Z,1004.67
2022-12-10T07:30:38.301Z,1004.66
2022-12-10T07:31:38.313Z,1004.72
2022-12-10T07:32:38.280Z,1004.72
2022-12-10T07:33:38.270Z,1004.72
2022-12-10T07:34:38.261Z,1004.69
2022-12-10T07:35:38.239Z,1004.70
2022-12-10T07:36:38.230Z,1004.72
2022-12-10T07:37:38.309Z,1004.72
2022-12-10T07:38:38.212Z,1004.76
2022-12-10T07:39:38.194Z,1004.70
2022-12-10T07:40:38.184Z,1004.80
2022-12-10T07:41:38.183Z,1004.80
2022-12-10T07:42:40.159Z,1004.81
2022-12-10T07:43:38.155Z,1004.83
2022-12-10T07:44:38.144Z,1004.86
2022-12-10T07:45:38.140Z,1004.89
2022-12-10T07:46:38.175Z,1004.86
2022-12-10T07:47:40.113Z,1004.78
2022-12-10T07:48:38.093Z,1004.82
2022-12-10T07:49:40.088Z,1004.89
2022-12-10T07:50:38.069Z,1004.88
2022-12-10T07:51:38.071Z,1004.90
2022-12-10T07:52:38.062Z,1004.90
2022-12-10T07:53:40.069Z,1004.91
2022-12-10T07:54:38.024Z,1004.92
2022-12-10T07:55:38.020Z,1004.91
2022-12-10T07:56:38.014Z,1004.95
2022-12-10T07:57:38.006Z,1004.93
2022-12-10T07:58:37.982Z,1005.00
2022-12-10T07:59:37.970Z,1004.91
2022-12-10T08:00:38.011Z,1004.93
2022-12-10T08:01:37.951Z,1004.92
2022-12-10T08:02:39.979Z,1004.94
2022-12-10T08:03:37.929Z,1004.94
2022-12-10T08:04:37.912Z,1004.98
2022-12-10T08:05:37.911Z,1005.01
2022-12-10T08:06:37.897Z,1004.94
2022-12-10T08:07:37.886Z,1005.01
2022-12-10T08:08:37.946Z,1004.98
2022-12-10T08:09:37.887Z,1005.02
2022-12-10T08:10:37.847Z,1004.92
2022-12-10T08:11:39.846Z,1005.09
2022-12-10T08:12:37.837Z,1005.04
2022-12-10T08:13:37.814Z,1005.05
2022-12-10T08:14:37.802Z,1005.12
2022-12-10T08:15:37.804Z,1005.09
2022-12-10T08:16:39.850Z,1005.10
2022-12-10T08:17:37.770Z,1005.08
2022-12-10T08:18:39.768Z,1005.08
2022-12-10T08:19:39.747Z,1005.10
2022-12-10T08:20:37.754Z,1005.10
2022-12-10T08:21:37.732Z,1005.10
2022-12-10T08:22:37.719Z,1005.09
2022-12-10T08:23:39.713Z,1005.05
2022-12-10T08:24:37.698Z,1005.11
2022-12-10T08:25:40.634Z,1005.11
2022-12-10T08:26:37.676Z,1005.13
2022-12-10T08:27:37.663Z,1005.13
2022-12-10T08:28:37.656Z,1005.24
2022-12-10T08:29:39.637Z,1005.22
2022-12-10T08:30:37.630Z,1005.18
2022-12-10T08:31:38.317Z,1005.20
2022-12-10T08:32:37.604Z,1005.16
2022-12-10T08:33:37.596Z,1005.23
2022-12-10T08:34:39.584Z,1005.22
2022-12-10T08:35:37.567Z,1005.19
2022-12-10T08:36:37.569Z,1005.18
2022-12-10T08:37:39.551Z,1005.17
2022-12-10T08:38:37.544Z,1005.18
2022-12-10T08:39:37.524Z,1005.14
2022-12-10T08:40:37.517Z,1005.13
2022-12-10T08:41:37.531Z,1005.11
2022-12-10T08:42:37.497Z,1005.05
2022-12-10T08:43:37.485Z,1005.07
2022-12-10T08:44:37.474Z,1005.11
2022-12-10T08:45:37.520Z,1005.07
2022-12-10T08:46:39.452Z,1005.15
2022-12-10T08:47:37.442Z,1005.14
2022-12-10T08:48:37.431Z,1005.20
2022-12-10T08:49:37.420Z,1005.20
2022-12-10T08:50:37.414Z,1005.22
2022-12-10T08:51:37.394Z,1005.18
2022-12-10T08:52:37.388Z,1005.26
2022-12-10T08:53:37.377Z,1005.34
2022-12-10T08:54:37.364Z,1005.27
2022-12-10T08:55:37.359Z,1005.32
2022-12-10T08:56:37.336Z,1005.33
2022-12-10T08:57:37.360Z,1005.33
2022-12-10T08:58:37.327Z,1005.32
2022-12-10T08:59:37.308Z,1005.33
2022-12-10T09:00:37.351Z,1005.29
2022-12-10T09:01:37.289Z,1005.29
2022-12-10T09:02:37.313Z,1005.35
2022-12-10T09:03:37.262Z,1005.37
2022-12-10T09:04:37.249Z,1005.34
2022-12-10T09:05:37.233Z,1005.26
2022-12-10T09:06:37.231Z,1005.39
2022-12-10T09:07:37.220Z,1005.38
2022-12-10T09:08:37.201Z,1005.40
2022-12-10T09:09:37.188Z,1005.38
2022-12-10T09:10:37.190Z,1005.40
2022-12-10T09:11:37.173Z,1005.37
2022-12-10T09:12:37.160Z,1005.35
2022-12-10T09:13:37.167Z,1005.43
2022-12-10T09:14:37.132Z,1005.44
2022-12-10T09:15:37.120Z,1005.42
2022-12-10T09:16:37.240Z,1005.40
2022-12-10T09:17:37.097Z,1005.40
2022-12-10T09:18:37.092Z,1005.40
2022-12-10T09:19:37.076Z,1005.39
2022-12-10T09:20:37.071Z,1005.42
2022-12-10T09:21:37.058Z,1005.40
2022-12-10T09:22:37.046Z,1005.40
2022-12-10T09:23:37.028Z,1005.40
2022-12-10T09:24:37.020Z,1005.44
2022-12-10T09:25:37.011Z,1005.44
2022-12-10T09:26:37.018Z,1005.36
2022-12-10T09:27:36.983Z,1005.37
2022-12-10T09:28:36.972Z,1005.46
2022-12-10T09:29:36.991Z,1005.45
2022-12-10T09:30:36.954Z,1005.47
2022-12-10T09:31:37.021Z,1005.46
2022-12-10T09:32:36.933Z,1005.39
2022-12-10T09:33:36.921Z,1005.47
2022-12-10T09:34:36.911Z,1005.45
2022-12-10T09:35:36.899Z,1005.48
2022-12-10T09:36:36.881Z,1005.48
2022-12-10T09:37:36.874Z,1005.43
2022-12-10T09:38:36.857Z,1005.46
2022-12-10T09:39:36.856Z,1005.34
2022-12-10T09:40:36.833Z,1005.41
2022-12-10T09:41:36.821Z,1005.44
2022-12-10T09:42:36.812Z,1005.38
2022-12-10T09:43:36.810Z,1005.43
2022-12-10T09:44:36.790Z,1005.43
2022-12-10T09:45:36.837Z,1005.41
2022-12-10T09:46:36.767Z,1005.45
2022-12-10T09:47:36.768Z,1005.44
2022-12-10T09:48:36.754Z,1005.40
2022-12-10T09:49:36.747Z,1005.40
2022-12-10T09:50:36.719Z,1005.45
2022-12-10T09:51:36.708Z,1005.44
2022-12-10T09:52:36.700Z,1005.40
2022-12-10T09:53:36.693Z,1005.43
2022-12-10T09:54:36.675Z,1005.45
2022-12-10T09:55:36.677Z,1005.42
2022-12-10T09:56:36.652Z,1005.34
2022-12-10T09:57:36.649Z,1005.40
2022-12-10T09:58:36.635Z,1005.32
2022-12-10T09:59:36.618Z,1005.35
2022-12-10T10:00:36.606Z,1005.30
2022-12-10T10:01:36.667Z,1005.33
2022-12-10T10:02:36.615Z,1005.34
2022-12-10T10:03:36.573Z,1005.30
2022-12-10T10:04:36.560Z,1005.29
2022-12-10T10:05:36.550Z,1005.29
2022-12-10T10:06:36.540Z,1005.30
2022-12-10T10:07:36.578Z,1005.34
2022-12-10T10:08:36.515Z,1005.35
2022-12-10T10:09:36.503Z,1005.38
2022-12-10T10:10:36.505Z,1005.35
2022-12-10T10:11:36.482Z,1005.33
2022-12-10T10:12:36.471Z,1005.38
2022-12-10T10:13:36.459Z,1005.28
2022-12-10T10:14:36.455Z,1005.37
2022-12-10T10:15:36.440Z,1005.34
2022-12-10T10:16:36.477Z,1005.36
2022-12-10T10:17:36.448Z,1005.36
2022-12-10T10:18:36.410Z,1005.33
2022-12-10T10:19:36.390Z,1005.34
2022-12-10T10:20:36.387Z,1005.35
2022-12-10T10:21:36.372Z,1005.43
2022-12-10T10:22:36.374Z,1005.37
2022-12-10T10:23:36.354Z,1005.39
2022-12-10T10:24:36.355Z,1005.36
2022-12-10T10:25:36.349Z,1005.36
2022-12-10T10:26:36.316Z,1005.44
2022-12-10T10:27:36.311Z,1005.42
2022-12-10T10:28:36.287Z,1005.46
2022-12-10T10:29:36.277Z,1005.43
2022-12-10T10:30:36.314Z,1005.38
2022-12-10T10:31:36.253Z,1005.41
2022-12-10T10:32:36.244Z,1005.32
2022-12-10T10:33:36.264Z,1005.34
2022-12-10T10:34:36.222Z,1005.37
2022-12-10T10:35:36.222Z,1005.30
2022-12-10T10:36:36.199Z,1005.33
2022-12-10T10:37:36.185Z,1005.32
2022-12-10T10:38:36.176Z,1005.32
2022-12-10T10:39:36.170Z,1005.31
2022-12-10T10:40:36.158Z,1005.24
2022-12-10T10:41:36.142Z,1005.25
2022-12-10T10:42:36.132Z,1005.24
2022-12-10T10:43:36.121Z,1005.24
2022-12-10T10:44:36.133Z,1005.24
2022-12-10T10:45:36.104Z,1005.20
2022-12-10T10:46:36.083Z,1005.16
2022-12-10T10:47:36.074Z,1005.22
2022-12-10T10:48:36.067Z,1005.18
2022-12-10T10:49:36.078Z,1005.20
2022-12-10T10:50:36.045Z,1005.17
2022-12-10T10:51:36.027Z,1005.21
2022-12-10T10:52:36.016Z,1005.17
2022-12-10T10:53:36.019Z,1005.13
2022-12-10T10:54:35.998Z,1005.13
2022-12-10T10:55:35.996Z,1005.14
2022-12-10T10:56:35.977Z,1005.14
2022-12-10T10:57:35.958Z,1005.16
2022-12-10T10:58:35.954Z,1005.14
2022-12-10T10:59:35.938Z,1005.14
2022-12-10T11:00:35.932Z,1005.15
2022-12-10T11:01:35.946Z,1005.12
2022-12-10T11:02:41.991Z,1005.11
2022-12-10T11:03:35.904Z,1005.14
2022-12-10T11:04:35.881Z,1005.13
2022-12-10T11:05:36.691Z,1005.12
2022-12-10T11:06:35.862Z,1005.12
2022-12-10T11:07:35.845Z,1005.08
2022-12-10T11:08:35.842Z,1005.10
2022-12-10T11:09:35.824Z,1005.05
2022-12-10T11:10:35.817Z,1005.12
2022-12-10T11:11:35.806Z,1005.10
2022-12-10T11:12:35.798Z,1005.12
2022-12-10T11:13:35.778Z,1005.15
2022-12-10T11:14:40.063Z,1005.13
2022-12-10T11:15:35.766Z,1005.15
2022-12-10T11:16:35.787Z,1005.12
2022-12-10T11:17:35.734Z,1005.16
2022-12-10T11:18:35.726Z,1005.14
2022-12-10T11:19:35.708Z,1005.12
2022-12-10T11:20:41.968Z,1005.00
2022-12-10T11:21:35.728Z,1005.12
2022-12-10T11:22:35.686Z,1005.13
2022-12-10T11:23:35.670Z,1005.10
2022-12-10T11:24:35.660Z,1005.00
2022-12-10T11:25:35.651Z,1004.98
2022-12-10T11:26:39.652Z,1005.04
2022-12-10T11:27:35.622Z,1005.03
2022-12-10T11:28:35.606Z,1005.02
2022-12-10T11:29:35.605Z,1004.95
2022-12-10T11:30:35.678Z,1005.02
2022-12-10T11:31:35.585Z,1005.03
2022-12-10T11:32:35.612Z,1005.01
2022-12-10T11:33:35.558Z,1005.03
2022-12-10T11:34:35.539Z,1004.99
2022-12-10T11:35:35.529Z,1004.99
2022-12-10T11:36:35.518Z,1005.00
2022-12-10T11:37:35.728Z,1005.00
2022-12-10T11:38:35.502Z,1005.01
2022-12-10T11:39:35.516Z,1004.94
2022-12-10T11:40:35.480Z,1004.95
2022-12-10T11:41:35.490Z,1004.99
2022-12-10T11:42:35.467Z,1004.99
2022-12-10T11:43:35.448Z,1004.94
2022-12-10T11:44:35.429Z,1004.97
2022-12-10T11:45:35.421Z,1004.96
2022-12-10T11:46:35.504Z,1004.96
2022-12-10T11:47:35.404Z,1004.96
2022-12-10T11:48:40.469Z,1004.97
2022-12-10T11:49:35.378Z,1004.96
2022-12-10T11:50:35.365Z,1004.98
2022-12-10T11:51:35.350Z,1004.97
2022-12-10T11:52:35.342Z,1005.00
2022-12-10T11:53:35.353Z,1004.95
2022-12-10T11:54:35.311Z,1004.96
2022-12-10T11:55:35.301Z,1005.01
2022-12-10T11:56:35.308Z,1004.97
2022-12-10T11:57:35.278Z,1004.98
2022-12-10T11:58:35.275Z,1005.02
2022-12-10T12:00:02.913Z,1005.03
2022-12-10T12:00:35.259Z,1004.99
2022-12-10T12:01:35.240Z,1005.02
2022-12-10T12:02:35.272Z,1005.05
2022-12-10T12:03:35.222Z,1005.05
2022-12-10T12:04:35.206Z,1005.03
2022-12-10T12:05:35.193Z,1005.03
2022-12-10T12:06:35.184Z,1005.04
2022-12-10T12:07:35.168Z,1005.08
2022-12-10T12:08:35.166Z,1005.10
2022-12-10T12:09:35.176Z,1005.08
2022-12-10T12:10:46.316Z,1005.06
2022-12-10T12:11:35.136Z,1005.11
2022-12-10T12:12:35.130Z,1005.06
2022-12-10T12:13:35.112Z,1005.10
2022-12-10T12:14:35.093Z,1005.05
2022-12-10T12:15:35.138Z,1005.09
2022-12-10T12:16:35.064Z,1005.10
2022-12-10T12:17:35.058Z,1005.16
2022-12-10T12:18:35.054Z,1005.10
2022-12-10T12:19:35.032Z,1005.13
2022-12-10T12:20:35.021Z,1005.11
2022-12-10T12:21:35.013Z,1005.14
2022-12-10T12:22:35.002Z,1005.11
2022-12-10T12:23:34.998Z,1005.14
2022-12-10T12:24:34.980Z,1005.12
2022-12-10T12:25:35.004Z,1005.21
2022-12-10T12:26:34.964Z,1005.16
2022-12-10T12:27:34.946Z,1005.15
2022-12-10T12:28:34.943Z,1005.17
2022-12-10T12:29:37.298Z,1005.18
2022-12-10T12:30:34.906Z,1005.20
2022-12-10T12:31:35.019Z,1005.24
2022-12-10T12:32:34.881Z,1005.15
2022-12-10T12:33:34.877Z,1005.15
2022-12-10T12:34:34.867Z,1005.17
2022-12-10T12:35:34.850Z,1005.19
2022-12-10T12:36:34.843Z,1005.16
2022-12-10T12:37:34.825Z,1005.21
2022-12-10T12:38:34.821Z,1005.16
2022-12-10T12:39:34.804Z,1005.24
2022-12-10T12:40:34.796Z,1005.22
2022-12-10T12:41:34.806Z,1005.21
2022-12-10T12:42:34.770Z,1005.15
2022-12-10T12:43:34.764Z,1005.21
2022-12-10T12:44:34.750Z,1005.16
2022-12-10T12:45:34.746Z,1005.23
2022-12-10T12:46:34.786Z,1005.20
2022-12-10T12:47:34.745Z,1005.18
2022-12-10T12:48:34.701Z,1005.16
2022-12-10T12:49:34.688Z,1005.16
2022-12-10T12:50:34.687Z,1005.22
2022-12-10T12:51:34.676Z,1005.17
2022-12-10T12:52:34.673Z,1005.16
2022-12-10T12:53:35.522Z,1005.13
2022-12-10T12:54:34.636Z,1005.18
2022-12-10T12:55:34.623Z,1005.17
2022-12-10T12:56:34.612Z,1005.18
2022-12-10T12:57:34.635Z,1005.19
2022-12-10T12:58:34.596Z,1005.21
2022-12-10T12:59:37.507Z,1005.17
2022-12-10T13:00:34.569Z,1005.20
2022-12-10T13:01:34.593Z,1005.25
2022-12-10T13:02:34.566Z,1005.19
2022-12-10T13:03:34.641Z,1005.19
2022-12-10T13:04:34.517Z,1005.16
2022-12-10T13:05:34.509Z,1005.17
2022-12-10T13:06:34.502Z,1005.18
2022-12-10T13:07:34.497Z,1005.22
2022-12-10T13:08:34.471Z,1005.25
2022-12-10T13:09:34.462Z,1005.22
2022-12-10T13:10:34.460Z,1005.22
2022-12-10T13:11:34.444Z,1005.28
2022-12-10T13:12:34.426Z,1005.26
2022-12-10T13:13:34.446Z,1005.30
2022-12-10T13:14:34.405Z,1005.24
2022-12-10T13:15:34.442Z,1005.34
2022-12-10T13:16:34.380Z,1005.30
2022-12-10T13:17:34.381Z,1005.27
2022-12-10T13:18:34.359Z,1005.29
2022-12-10T13:19:34.346Z,1005.26
2022-12-10T13:20:34.345Z,1005.27
2022-12-10T13:21:34.324Z,1005.33
2022-12-10T13:22:34.312Z,1005.31
2022-12-10T13:23:34.313Z,1005.26
2022-12-10T13:24:34.295Z,1005.35
2022-12-10T13:25:34.277Z,1005.34
2022-12-10T13:26:34.266Z,1005.40
2022-12-10T13:27:34.266Z,1005.41
2022-12-10T13:28:34.255Z,1005.41
2022-12-10T13:29:34.280Z,1005.45
2022-12-10T13:30:34.221Z,1005.39
2022-12-10T13:31:34.314Z,1005.44
2022-12-10T13:32:34.204Z,1005.41
2022-12-10T13:33:34.194Z,1005.47
2022-12-10T13:34:34.184Z,1005.50
2022-12-10T13:35:34.167Z,1005.47
2022-12-10T13:36:34.153Z,1005.40
2022-12-10T13:37:34.152Z,1005.48
2022-12-10T13:38:34.136Z,1005.51
2022-12-10T13:39:34.132Z,1005.46
2022-12-10T13:40:34.120Z,1005.54
2022-12-10T13:41:34.106Z,1005.49
2022-12-10T13:42:34.090Z,1005.50
2022-12-10T13:43:34.087Z,1005.54
2022-12-10T13:44:34.071Z,1005.45
2022-12-10T13:45:34.078Z,1005.50
2022-12-10T13:46:34.102Z,1005.50
2022-12-10T13:47:34.032Z,1005.54
2022-12-10T13:48:34.016Z,1005.46
2022-12-10T13:49:34.007Z,1005.48
2022-12-10T13:50:33.996Z,1005.48
2022-12-10T13:51:33.987Z,1005.49
2022-12-10T13:52:33.970Z,1005.47
2022-12-10T13:53:33.974Z,1005.50
2022-12-10T13:54:33.956Z,1005.50
2022-12-10T13:55:33.938Z,1005.50
2022-12-10T13:56:33.925Z,1005.54
2022-12-10T13:57:33.917Z,1005.53
2022-12-10T13:58:35.907Z,1005.58
2022-12-10T13:59:33.892Z,1005.55
2022-12-10T14:00:33.889Z,1005.58
2022-12-10T14:01:33.958Z,1005.67
2022-12-10T14:02:33.908Z,1005.61
2022-12-10T14:03:35.845Z,1005.61
2022-12-10T14:04:33.841Z,1005.63
2022-12-10T14:05:39.524Z,1005.60
2022-12-10T14:06:33.811Z,1005.59
2022-12-10T14:07:33.800Z,1005.62
2022-12-10T14:08:33.794Z,1005.59
2022-12-10T14:09:33.782Z,1005.60
2022-12-10T14:10:33.772Z,1005.60
2022-12-10T14:11:37.321Z,1005.59
2022-12-10T14:12:35.753Z,1005.64
2022-12-10T14:13:33.739Z,1005.57
2022-12-10T14:14:33.734Z,1005.61
2022-12-10T14:15:33.718Z,1005.60
2022-12-10T14:16:33.750Z,1005.57
2022-12-10T14:17:33.718Z,1005.61
2022-12-10T14:18:33.682Z,1005.60
2022-12-10T14:19:33.672Z,1005.60
2022-12-10T14:20:33.650Z,1005.60
2022-12-10T14:21:33.650Z,1005.61
2022-12-10T14:22:33.634Z,1005.63
2022-12-10T14:23:33.621Z,1005.64
2022-12-10T14:24:35.606Z,1005.63
2022-12-10T14:25:33.596Z,1005.57
2022-12-10T14:26:33.584Z,1005.59
2022-12-10T14:27:33.583Z,1005.62
2022-12-10T14:28:35.564Z,1005.59
2022-12-10T14:29:33.562Z,1005.55
2022-12-10T14:30:33.546Z,1005.57
2022-12-10T14:31:33.618Z,1005.52
2022-12-10T14:32:33.532Z,1005.55
2022-12-10T14:33:33.534Z,1005.61
2022-12-10T14:34:33.499Z,1005.50
2022-12-10T14:35:33.485Z,1005.55
2022-12-10T14:36:33.470Z,1005.50
2022-12-10T14:37:35.456Z,1005.49
2022-12-10T14:38:33.466Z,1005.60
2022-12-10T14:39:35.449Z,1005.56
2022-12-10T14:40:33.429Z,1005.62
2022-12-10T14:41:39.103Z,1005.68
2022-12-10T14:42:33.407Z,1005.64
2022-12-10T14:43:33.398Z,1005.63
2022-12-10T14:44:33.389Z,1005.65
2022-12-10T14:45:35.367Z,1005.65
2022-12-10T14:46:33.414Z,1005.61
2022-12-10T14:47:33.350Z,1005.62
2022-12-10T14:48:35.364Z,1005.66
2022-12-10T14:49:33.426Z,1005.63
2022-12-10T14:50:33.312Z,1005.65
2022-12-10T14:51:33.298Z,1005.69
2022-12-10T14:52:33.308Z,1005.72
2022-12-10T14:53:33.274Z,1005.69
2022-12-10T14:54:35.269Z,1005.70
2022-12-10T14:55:33.255Z,1005.74
2022-12-10T14:56:33.247Z,1005.71
2022-12-10T14:57:33.234Z,1005.73
2022-12-10T14:58:37.176Z,1005.76
2022-12-10T14:59:33.211Z,1005.75
2022-12-10T15:00:33.196Z,1005.76
2022-12-10T15:01:33.184Z,1005.78
2022-12-10T15:02:35.228Z,1005.77
2022-12-10T15:03:33.311Z,1005.76
2022-12-10T15:04:33.278Z,1005.80
2022-12-10T15:05:33.143Z,1005.80
2022-12-10T15:06:33.127Z,1005.79
2022-12-10T15:07:33.116Z,1005.83
2022-12-10T15:08:35.102Z,1005.78
2022-12-10T15:09:33.094Z,1005.76
2022-12-10T15:10:33.083Z,1005.81
2022-12-10T15:11:33.072Z,1005.80
2022-12-10T15:12:33.065Z,1005.79
2022-12-10T15:13:33.045Z,1005.79
2022-12-10T15:14:33.035Z,1005.80
2022-12-10T15:15:35.030Z,1005.78
2022-12-10T15:16:33.154Z,1005.78
2022-12-10T15:17:33.003Z,1005.77
2022-12-10T15:18:35.000Z,1005.83
2022-12-10T15:19:32.986Z,1005.80
2022-12-10T15:20:33.004Z,1005.78
2022-12-10T15:21:32.964Z,1005.81
2022-12-10T15:22:38.525Z,1005.80
2022-12-10T15:23:32.955Z,1005.77
2022-12-10T15:24:32.939Z,1005.85
2022-12-10T15:25:32.911Z,1005.86
2022-12-10T15:26:32.905Z,1005.86
2022-12-10T15:27:32.894Z,1005.81
2022-12-10T15:28:32.877Z,1005.81
2022-12-10T15:29:32.865Z,1005.86
2022-12-10T15:30:32.861Z,1005.81
2022-12-10T15:31:32.920Z,1005.84
2022-12-10T15:32:32.831Z,1005.82
2022-12-10T15:33:32.828Z,1005.84
2022-12-10T15:34:32.820Z,1005.89
2022-12-10T15:35:32.798Z,1005.87
2022-12-10T15:36:32.821Z,1005.89
2022-12-10T15:37:32.786Z,1005.92
2022-12-10T15:38:32.769Z,1005.84
2022-12-10T15:39:32.758Z,1005.84
2022-12-10T15:40:32.740Z,1005.86
2022-12-10T15:41:32.731Z,1005.88
2022-12-10T15:42:32.734Z,1005.81
2022-12-10T15:43:32.714Z,1005.90
2022-12-10T15:44:32.698Z,1005.88
2022-12-10T15:45:32.712Z,1005.87
2022-12-10T15:46:32.821Z,1005.91
2022-12-10T15:47:32.663Z,1005.87
2022-12-10T15:48:32.657Z,1005.86
2022-12-10T15:49:32.638Z,1005.84
2022-12-10T15:50:32.633Z,1005.84
2022-12-10T15:51:32.622Z,1005.80
2022-12-10T15:52:32.649Z,1005.88
2022-12-10T15:53:35.607Z,1005.89
2022-12-10T15:54:32.592Z,1005.90
2022-12-10T15:55:32.581Z,1005.95
2022-12-10T15:56:32.632Z,1005.95
2022-12-10T15:57:32.548Z,1005.97
2022-12-10T15:58:32.550Z,1005.99
2022-12-10T15:59:32.533Z,1005.96
2022-12-10T16:00:32.520Z,1005.96
2022-12-10T16:01:32.542Z,1005.90
2022-12-10T16:02:32.600Z,1005.96
2022-12-10T16:03:32.481Z,1005.94
2022-12-10T16:04:32.476Z,1006.01
2022-12-10T16:05:32.464Z,1005.98
2022-12-10T16:06:32.552Z,1005.96
2022-12-10T16:07:32.438Z,1005.92
2022-12-10T16:08:32.546Z,1005.94
2022-12-10T16:09:32.421Z,1005.90
2022-12-10T16:10:32.406Z,1005.90
2022-12-10T16:11:32.398Z,1005.92
2022-12-10T16:12:35.892Z,1005.94
2022-12-10T16:13:32.379Z,1005.88
2022-12-10T16:14:32.370Z,1005.88
2022-12-10T16:15:32.348Z,1005.84
2022-12-10T16:16:32.361Z,1005.88
2022-12-10T16:17:32.324Z,1005.92
2022-12-10T16:18:34.544Z,1005.94
2022-12-10T16:19:32.313Z,1005.92
2022-12-10T16:20:32.288Z,1005.94
2022-12-10T16:21:32.279Z,1005.93
2022-12-10T16:22:32.271Z,1005.91
2022-12-10T16:23:32.262Z,1005.96
2022-12-10T16:24:32.267Z,1005.91
2022-12-10T16:25:32.247Z,1005.90
2022-12-10T16:26:32.383Z,1005.93
2022-12-10T16:27:32.215Z,1005.89
2022-12-10T16:28:32.203Z,1005.94
2022-12-10T16:29:32.194Z,1005.95
2022-12-10T16:30:36.948Z,1005.97
2022-12-10T16:31:32.215Z,1005.96
2022-12-10T16:32:32.155Z,1006.01
2022-12-10T16:33:32.153Z,1006.02
2022-12-10T16:34:32.142Z,1006.01
2022-12-10T16:35:32.119Z,1005.96
2022-12-10T16:36:32.198Z,1005.95
2022-12-10T16:37:32.094Z,1005.97
2022-12-10T16:38:32.083Z,1005.92
2022-12-10T16:39:32.072Z,1005.98
2022-12-10T16:40:32.094Z,1006.01
2022-12-10T16:41:32.056Z,1005.99
2022-12-10T16:42:32.039Z,1006.00
2022-12-10T16:43:32.027Z,1006.00
2022-12-10T16:44:32.021Z,1006.05
2022-12-10T16:45:32.121Z,1006.01
2022-12-10T16:46:32.030Z,1006.00
2022-12-10T16:47:31.987Z,1005.99
2022-12-10T16:48:31.976Z,1005.98
2022-12-10T16:49:31.964Z,1006.08
2022-12-10T16:50:31.959Z,1006.04
2022-12-10T16:51:31.941Z,1006.03
2022-12-10T16:52:31.924Z,1006.03
2022-12-10T16:53:31.921Z,1006.01
2022-12-10T16:54:31.914Z,1006.07
2022-12-10T16:55:31.929Z,1006.05
2022-12-10T16:56:31.900Z,1006.06
2022-12-10T16:57:35.495Z,1006.09
2022-12-10T16:58:31.858Z,1006.09
2022-12-10T16:59:31.853Z,1006.13
2022-12-10T17:00:31.865Z,1006.10
2022-12-10T17:01:32.074Z,1006.01
2022-12-10T17:02:31.846Z,1006.11
2022-12-10T17:03:31.805Z,1006.11
2022-12-10T17:04:31.801Z,1006.10
2022-12-10T17:05:31.782Z,1006.12
2022-12-10T17:06:31.775Z,1006.15
2022-12-10T17:07:31.754Z,1006.11
2022-12-10T17:08:31.797Z,1006.08
2022-12-10T17:09:31.734Z,1006.10
2022-12-10T17:10:31.732Z,1006.06
2022-12-10T17:11:31.706Z,1006.07
2022-12-10T17:12:31.727Z,1006.05
2022-12-10T17:13:31.686Z,1006.06
2022-12-10T17:14:31.675Z,1006.10
2022-12-10T17:15:31.676Z,1006.06
2022-12-10T17:16:31.726Z,1006.06
2022-12-10T17:17:31.646Z,1006.09
2022-12-10T17:18:31.637Z,1006.04
2022-12-10T17:19:31.618Z,1006.01
2022-12-10T17:20:31.604Z,1006.04
2022-12-10T17:21:37.069Z,1006.14
2022-12-10T17:22:31.582Z,1006.10
2022-12-10T17:23:31.572Z,1006.11
2022-12-10T17:24:31.558Z,1006.09
2022-12-10T17:25:31.561Z,1006.15
2022-12-10T17:26:31.545Z,1006.14
2022-12-10T17:27:35.759Z,1006.11
2022-12-10T17:28:31.541Z,1006.09
2022-12-10T17:29:31.515Z,1006.10
2022-12-10T17:30:31.498Z,1006.13
2022-12-10T17:31:31.532Z,1006.13
2022-12-10T17:32:31.474Z,1006.05
2022-12-10T17:33:31.456Z,1006.08
2022-12-10T17:34:31.446Z,1006.12
2022-12-10T17:35:31.438Z,1006.10
2022-12-10T17:36:31.421Z,1006.05
2022-12-10T17:37:31.411Z,1006.06
2022-12-10T17:38:31.423Z,1006.15
2022-12-10T17:39:31.397Z,1006.15
2022-12-10T17:40:31.376Z,1006.11
2022-12-10T17:41:31.368Z,1006.08
2022-12-10T17:42:31.353Z,1006.06
2022-12-10T17:43:31.348Z,1006.10
2022-12-10T17:44:31.365Z,1006.13
2022-12-10T17:45:31.393Z,1006.11
2022-12-10T17:46:31.317Z,1006.13
2022-12-10T17:47:31.299Z,1006.19
2022-12-10T17:48:31.291Z,1006.17
2022-12-10T17:49:31.273Z,1006.15
2022-12-10T17:50:32.617Z,1006.11
2022-12-10T17:51:31.258Z,1006.19
2022-12-10T17:52:31.241Z,1006.12
2022-12-10T17:53:31.239Z,1006.16
2022-12-10T17:54:31.225Z,1006.11
2022-12-10T17:55:31.211Z,1006.08
2022-12-10T17:56:31.198Z,1006.10
2022-12-10T17:57:31.184Z,1006.13
2022-12-10T17:58:31.172Z,1006.13
2022-12-10T17:59:31.167Z,1006.18
2022-12-10T18:00:31.183Z,1006.23
2022-12-10T18:01:31.216Z,1006.08
2022-12-10T18:02:31.164Z,1006.10
2022-12-10T18:03:31.116Z,1006.12
2022-12-10T18:04:31.116Z,1006.17
2022-12-10T18:05:31.105Z,1006.14
2022-12-10T18:06:31.097Z,1006.13
2022-12-10T18:07:31.079Z,1006.14
2022-12-10T18:08:31.123Z,1006.16
2022-12-10T18:09:31.064Z,1006.19
2022-12-10T18:10:31.036Z,1006.18
2022-12-10T18:11:31.026Z,1006.22
2022-12-10T18:12:31.014Z,1006.16
2022-12-10T18:13:31.012Z,1006.15
2022-12-10T18:14:30.999Z,1006.25
2022-12-10T18:15:30.982Z,1006.23
2022-12-10T18:16:31.194Z,1006.22
2022-12-10T18:17:30.963Z,1006.22
2022-12-10T18:18:30.948Z,1006.21
2022-12-10T18:19:30.943Z,1006.21
2022-12-10T18:20:30.930Z,1006.21
2022-12-10T18:21:30.918Z,1006.22
2022-12-10T18:22:30.910Z,1006.20
2022-12-10T18:23:30.887Z,1006.20
2022-12-10T18:24:30.885Z,1006.22
2022-12-10T18:25:30.868Z,1006.24
2022-12-10T18:26:30.856Z,1006.25
2022-12-10T18:27:30.848Z,1006.26
2022-12-10T18:28:30.837Z,1006.26
2022-12-10T18:29:30.821Z,1006.27
2022-12-10T18:30:30.839Z,1006.35
2022-12-10T18:31:30.886Z,1006.27
2022-12-10T18:32:30.822Z,1006.30
2022-12-10T18:33:30.777Z,1006.28
2022-12-10T18:34:30.764Z,1006.39
2022-12-10T18:35:30.757Z,1006.36
2022-12-10T18:36:30.751Z,1006.39
2022-12-10T18:37:30.736Z,1006.35
2022-12-10T18:38:30.725Z,1006.45
2022-12-10T18:39:30.720Z,1006.42
2022-12-10T18:40:30.700Z,1006.39
2022-12-10T18:41:30.691Z,1006.42
2022-12-10T18:42:30.673Z,1006.38
2022-12-10T18:43:30.669Z,1006.34
2022-12-10T18:44:30.657Z,1006.34
2022-12-10T18:45:30.643Z,1006.38